Time;durP1;ratioP1;P1;durP2;ratioP2;P2;SDS_P1;SDS_P2;PMS_P1;PMS_P2;Temp;Humidity;BMP_temperature;BMP_pressure;BME280_temperature;BME280_humidity;BME280_pressure;Samples;Min_cycle;Max_cycle;Signal;HPM_P1;HPM_P2
2022/10/20 00:01:27;;;;;;;61.22;30.42;;;11.00;99.90;;;;;;6308656;22;20004;-83
2022/10/20 00:03:54;;;;;;;55.30;29.50;;;11.00;99.90;;;;;;6311814;22;20027;-82
2022/10/20 00:06:25;;;;;;;56.20;29.77;;;11.00;99.90;;;;;;6339013;22;20400;-82
2022/10/20 00:08:52;;;;;;;43.50;25.00;;;11.00;99.90;;;;;;6311056;22;20007;-82
2022/10/20 00:11:20;;;;;;;44.75;23.63;;;11.10;99.90;;;;;;6311630;22;20078;-82
2022/10/20 00:13:47;;;;;;;37.85;22.52;;;11.10;99.90;;;;;;6338775;22;19991;-82
2022/10/20 00:16:14;;;;;;;38.42;21.65;;;11.20;99.90;;;;;;6338984;22;20400;-82
2022/10/20 00:18:40;;;;;;;35.60;20.88;;;11.20;99.90;;;;;;6339100;22;19998;-83
2022/10/20 00:21:08;;;;;;;36.80;17.77;;;11.30;99.90;;;;;;6339202;22;20016;-83
2022/10/20 00:23:34;;;;;;;35.70;17.88;;;11.30;99.90;;;;;;6338966;22;19995;-83
2022/10/20 00:26:11;;;;;;;23.88;14.65;;;11.40;99.90;;;;;;6311087;22;19994;-83
2022/10/20 00:28:37;;;;;;;22.73;14.63;;;11.40;99.90;;;;;;6311326;22;20007;-83
2022/10/20 00:31:04;;;;;;;26.73;14.90;;;11.50;99.90;;;;;;6338840;22;20018;-83
2022/10/20 00:33:31;;;;;;;27.10;15.27;;;11.50;99.90;;;;;;6311929;22;19995;-82
2022/10/20 00:36:01;;;;;;;28.85;14.05;;;11.50;99.90;;;;;;6313524;22;19995;-82
2022/10/20 00:38:26;;;;;;;22.17;14.05;;;11.60;99.90;;;;;;6313601;22;20055;-82
2022/10/20 00:40:52;;;;;;;28.65;16.73;;;11.60;99.90;;;;;;6340740;22;20022;-83
2022/10/20 00:43:18;;;;;;;29.58;17.75;;;11.60;99.90;;;;;;6340890;22;20032;-83
2022/10/20 00:45:55;;;;;;;31.02;16.60;;;11.70;99.90;;;;;;6340906;22;20034;-83
2022/10/20 00:48:26;;;;;;;25.30;16.30;;;11.70;99.90;;;;;;6340994;22;20003;-83
2022/10/20 00:50:55;;;;;;;29.58;17.30;;;11.70;99.90;;;;;;6287724;22;20042;-82
2022/10/20 00:53:23;;;;;;;29.40;16.73;;;11.60;99.90;;;;;;6340717;22;20479;-82
2022/10/20 00:55:51;;;;;;;28.38;20.85;;;11.60;99.90;;;;;;6313420;22;19994;-82
2022/10/20 00:58:18;;;;;;;29.98;16.88;;;11.50;99.90;;;;;;6340494;22;19990;-83
2022/10/20 01:00:46;;;;;;;27.73;14.98;;;11.50;99.90;;;;;;6340907;22;20058;-83
2022/10/20 01:03:19;;;;;;;22.80;14.93;;;11.50;99.90;;;;;;6341078;22;20415;-83
2022/10/20 01:05:44;;;;;;;25.83;14.68;;;11.40;99.90;;;;;;6340773;22;19990;-83
2022/10/20 01:08:10;;;;;;;32.30;16.70;;;11.40;99.90;;;;;;6313415;22;20056;-83
2022/10/20 01:10:50;;;;;;;31.85;17.17;;;11.40;99.90;;;;;;6313089;22;20333;-83
2022/10/20 01:13:47;;;;;;;34.75;19.65;;;11.30;99.90;;;;;;6313307;22;20001;-83
2022/10/20 01:16:25;;;;;;;37.70;20.52;;;11.20;99.90;;;;;;6333291;22;20026;-83
2022/10/20 01:18:50;;;;;;;35.10;19.92;;;11.10;99.90;;;;;;6313094;22;20007;-82
2022/10/20 01:21:39;;;;;;;31.90;17.90;;;11.10;99.90;;;;;;6313243;22;20003;-83
2022/10/20 01:24:34;;;;;;;43.10;19.15;;;11.00;99.90;;;;;;6257557;22;20001;-83
2022/10/20 01:27:32;;;;;;;30.23;18.63;;;10.90;99.90;;;;;;6300370;22;19995;-83
2022/10/20 01:30:07;;;;;;;36.00;19.85;;;10.90;99.90;;;;;;6312034;22;19995;-82
2022/10/20 01:32:57;;;;;;;33.00;21.15;;;10.80;99.90;;;;;;6313014;22;20006;-83
2022/10/20 01:35:32;;;;;;;30.23;20.25;;;10.70;99.90;;;;;;6312674;22;19997;-83
2022/10/20 01:38:21;;;;;;;30.08;19.05;;;10.70;99.90;;;;;;6313008;22;20024;-83
2022/10/20 01:41:01;;;;;;;28.02;17.95;;;10.60;99.90;;;;;;6312988;22;19998;-83
2022/10/20 01:43:32;;;;;;;27.88;18.30;;;10.60;99.90;;;;;;6340786;22;20017;-83
2022/10/20 01:45:58;;;;;;;28.00;17.15;;;10.50;99.90;;;;;;6340411;22;19998;-83
2022/10/20 01:48:30;;;;;;;27.17;17.45;;;10.40;99.90;;;;;;6312898;22;20006;-83
2022/10/20 01:50:56;;;;;;;26.02;17.52;;;10.50;99.90;;;;;;6340478;22;20044;-83
2022/10/20 01:53:21;;;;;;;29.30;17.80;;;10.50;99.90;;;;;;6312457;22;20082;-83
2022/10/20 01:55:53;;;;;;;35.42;20.60;;;10.50;99.90;;;;;;6340366;22;20028;-83
2022/10/20 01:58:28;;;;;;;35.00;20.58;;;10.40;99.90;;;;;;6312748;22;20006;-83
2022/10/20 02:00:58;;;;;;;36.40;20.77;;;10.40;99.90;;;;;;6312581;22;20005;-83
2022/10/20 02:03:47;;;;;;;40.20;22.40;;;10.40;99.90;;;;;;6340487;22;19991;-82
2022/10/20 02:06:55;;;;;;;34.92;20.75;;;10.30;99.90;;;;;;6340037;22;20316;-83
2022/10/20 02:09:47;;;;;;;26.98;17.63;;;10.30;99.90;;;;;;6340396;22;20007;-83
2022/10/20 02:12:18;;;;;;;34.30;16.92;;;10.30;99.90;;;;;;6340383;22;20030;-83
2022/10/20 02:14:45;;;;;;;32.53;17.67;;;10.20;99.90;;;;;;6339762;22;20415;-82
2022/10/20 02:17:14;;;;;;;25.80;17.77;;;10.10;99.90;;;;;;6340285;22;20415;-82
2022/10/20 02:19:42;;;;;;;26.73;18.42;;;10.10;99.90;;;;;;6340289;22;19995;-83
2022/10/20 02:22:10;;;;;;;29.17;17.70;;;10.10;99.90;;;;;;6339975;22;20120;-83
2022/10/20 02:24:39;;;;;;;29.95;18.20;;;10.00;99.90;;;;;;6340239;22;19994;-83
2022/10/20 02:27:14;;;;;;;30.23;19.38;;;10.00;99.90;;;;;;6312460;22;20441;-84
2022/10/20 02:29:54;;;;;;;28.63;18.60;;;9.90;99.90;;;;;;6312435;22;20411;-83
2022/10/20 02:32:21;;;;;;;29.50;16.77;;;9.90;99.90;;;;;;6340195;22;19995;-83
2022/10/20 02:34:47;;;;;;;30.00;16.85;;;9.90;99.90;;;;;;6340105;22;20853;-82
2022/10/20 02:37:13;;;;;;;30.63;18.70;;;9.90;99.90;;;;;;6312375;22;19998;-82
2022/10/20 02:39:39;;;;;;;35.53;19.92;;;9.80;99.90;;;;;;6312454;22;20027;-83
2022/10/20 02:42:05;;;;;;;36.42;21.20;;;9.80;99.90;;;;;;6339690;22;20442;-83
2022/10/20 02:44:31;;;;;;;34.40;22.00;;;9.80;99.90;;;;;;6340120;22;20311;-83
2022/10/20 02:46:57;;;;;;;29.65;18.35;;;9.80;99.90;;;;;;6339590;22;20069;-83
2022/10/20 02:49:24;;;;;;;30.85;18.63;;;9.70;99.90;;;;;;6339836;22;19995;-83
2022/10/20 02:51:50;;;;;;;27.65;17.85;;;9.80;99.90;;;;;;6340050;22;19994;-83
2022/10/20 02:54:16;;;;;;;32.45;18.35;;;9.70;99.90;;;;;;6312226;22;19998;-83
2022/10/20 02:56:41;;;;;;;34.10;17.65;;;9.70;99.90;;;;;;6311736;22;20129;-82
2022/10/20 02:59:13;;;;;;;29.35;16.50;;;9.70;99.90;;;;;;6339598;22;20002;-84
2022/10/20 03:01:39;;;;;;;27.42;16.48;;;9.70;99.90;;;;;;6312449;22;20303;-82
2022/10/20 03:04:05;;;;;;;28.67;15.85;;;9.60;99.90;;;;;;6339262;22;19991;-82
2022/10/20 03:06:31;;;;;;;25.02;15.38;;;9.60;99.90;;;;;;6312235;22;20056;-83
2022/10/20 03:08:57;;;;;;;24.90;14.82;;;9.50;99.90;;;;;;6312083;22;20124;-84
2022/10/20 03:11:23;;;;;;;22.10;14.98;;;9.50;99.90;;;;;;6311975;22;19998;-83
2022/10/20 03:13:49;;;;;;;25.73;13.85;;;9.40;99.90;;;;;;6339762;22;19987;-83
2022/10/20 03:16:14;;;;;;;25.02;15.00;;;9.40;99.90;;;;;;6312133;22;20032;-83
2022/10/20 03:18:40;;;;;;;24.15;14.07;;;9.40;99.90;;;;;;6339563;22;20002;-83
2022/10/20 03:21:06;;;;;;;22.65;14.43;;;9.40;99.90;;;;;;6339513;22;20299;-83
2022/10/20 03:23:32;;;;;;;23.67;13.50;;;9.30;99.90;;;;;;6339430;22;20040;-82
2022/10/20 03:26:05;;;;;;;23.77;14.70;;;9.30;99.90;;;;;;6312007;22;20074;-82
2022/10/20 03:28:32;;;;;;;25.00;14.70;;;9.30;99.90;;;;;;6339164;22;20315;-82
2022/10/20 03:30:58;;;;;;;24.45;14.43;;;9.30;99.90;;;;;;6339387;22;19987;-83
2022/10/20 03:33:24;;;;;;;25.63;14.52;;;9.30;99.90;;;;;;6312157;22;20047;-83
2022/10/20 03:35:50;;;;;;;25.52;14.82;;;9.20;99.90;;;;;;6311788;22;20396;-83
2022/10/20 03:38:16;;;;;;;28.38;15.23;;;9.20;99.90;;;;;;6339374;22;20048;-84
2022/10/20 03:40:42;;;;;;;27.95;15.55;;;9.20;99.90;;;;;;6311970;22;20300;-83
2022/10/20 03:43:08;;;;;;;30.58;17.30;;;9.10;99.90;;;;;;6311374;22;20011;-82
2022/10/20 03:45:33;;;;;;;31.23;16.10;;;9.10;99.90;;;;;;6339483;22;19987;-83
2022/10/20 03:47:59;;;;;;;27.83;15.60;;;9.10;99.90;;;;;;6339576;22;20003;-83
2022/10/20 03:50:25;;;;;;;26.00;15.80;;;9.10;99.90;;;;;;6311660;22;20023;-83
2022/10/20 03:52:51;;;;;;;25.77;15.15;;;9.00;99.90;;;;;;6311481;22;19999;-83
2022/10/20 03:55:17;;;;;;;25.48;15.93;;;9.00;99.90;;;;;;6311778;22;19991;-83
2022/10/20 03:57:43;;;;;;;23.73;16.80;;;9.00;99.90;;;;;;6339309;22;19999;-84
2022/10/20 04:00:10;;;;;;;32.85;17.58;;;8.90;99.90;;;;;;6311919;22;20030;-83
2022/10/20 04:02:39;;;;;;;26.23;17.00;;;8.90;99.90;;;;;;6311587;22;20074;-83
2022/10/20 04:05:06;;;;;;;26.25;16.98;;;8.90;99.90;;;;;;6339517;22;19991;-83
2022/10/20 04:07:32;;;;;;;30.70;16.50;;;8.90;99.90;;;;;;6311082;22;20036;-83
2022/10/20 04:10:00;;;;;;;30.83;17.38;;;8.90;99.90;;;;;;6339012;22;20044;-83
2022/10/20 04:12:27;;;;;;;32.15;17.63;;;8.90;99.90;;;;;;6311481;22;20423;-82
2022/10/20 04:14:53;;;;;;;34.22;17.48;;;8.80;99.90;;;;;;6339525;22;20403;-82
2022/10/20 04:17:19;;;;;;;33.30;16.30;;;8.80;99.90;;;;;;6311579;22;20002;-82
2022/10/20 04:19:45;;;;;;;24.55;15.30;;;8.80;99.90;;;;;;6339203;22;19990;-83
2022/10/20 04:22:11;;;;;;;26.88;14.65;;;8.80;99.90;;;;;;6311670;22;20425;-83
2022/10/20 04:24:36;;;;;;;28.73;14.93;;;8.80;99.90;;;;;;6339432;22;19991;-83
2022/10/20 04:27:03;;;;;;;28.73;15.20;;;8.70;99.90;;;;;;6311537;22;20027;-84
2022/10/20 04:29:28;;;;;;;30.30;17.58;;;8.70;99.90;;;;;;6311708;22;20001;-83
2022/10/20 04:31:54;;;;;;;29.42;17.08;;;8.70;99.90;;;;;;6338729;22;20019;-83
2022/10/20 04:34:20;;;;;;;26.98;16.35;;;8.70;99.90;;;;;;6310910;22;19994;-83
2022/10/20 04:36:46;;;;;;;30.27;16.85;;;8.70;99.90;;;;;;6309873;22;20026;-84
2022/10/20 04:39:12;;;;;;;30.92;18.10;;;8.70;99.90;;;;;;6309801;22;20003;-83
2022/10/20 04:41:38;;;;;;;33.50;18.70;;;8.70;99.90;;;;;;6309256;22;20010;-82
2022/10/20 04:44:04;;;;;;;31.10;17.38;;;8.70;99.90;;;;;;6338946;22;19991;-84
2022/10/20 04:46:30;;;;;;;35.17;17.48;;;8.70;99.90;;;;;;6338884;22;20002;-85
2022/10/20 04:48:55;;;;;;;37.00;16.48;;;8.70;99.90;;;;;;6311297;22;20010;-85
2022/10/20 04:51:21;;;;;;;36.83;19.05;;;8.60;99.90;;;;;;6310953;22;20524;-83
2022/10/20 04:53:47;;;;;;;33.22;18.65;;;8.60;99.90;;;;;;6309992;22;20002;-85
2022/10/20 04:56:19;;;;;;;30.90;17.05;;;8.60;99.90;;;;;;6310922;22;20277;-84
2022/10/20 04:58:51;;;;;;;;;;;8.60;99.90;;;;;;6311529;22;19999;-85
2022/10/20 05:01:18;;;;;;;45.22;26.38;;;8.60;99.90;;;;;;6311528;22;19894;-85
2022/10/20 05:03:44;;;;;;;118.43;57.47;;;8.60;99.90;;;;;;6338870;22;19991;-85
2022/10/20 05:06:19;;;;;;;150.30;75.60;;;8.60;99.90;;;;;;6311285;22;20034;-84
2022/10/20 05:08:47;;;;;;;87.90;45.05;;;8.50;99.90;;;;;;6311286;22;20006;-84
2022/10/20 05:11:15;;;;;;;59.05;32.50;;;8.50;99.90;;;;;;6311605;22;19998;-84
2022/10/20 05:13:41;;;;;;;58.92;32.13;;;8.50;99.90;;;;;;6311318;22;20053;-85
2022/10/20 05:16:07;;;;;;;58.42;30.45;;;8.40;99.90;;;;;;6311155;22;20299;-85
2022/10/20 05:18:34;;;;;;;54.30;29.25;;;8.40;99.90;;;;;;6311471;22;20018;-85
2022/10/20 05:21:05;;;;;;;47.92;26.63;;;8.40;99.90;;;;;;6313192;22;19995;-85
2022/10/20 05:23:30;;;;;;;44.40;26.33;;;8.50;99.90;;;;;;6313426;22;20022;-85
2022/10/20 05:25:56;;;;;;;52.65;32.13;;;8.50;99.90;;;;;;6313190;22;20403;-85
2022/10/20 05:28:22;;;;;;;52.75;30.15;;;8.60;99.90;;;;;;6340533;22;20399;-84
2022/10/20 05:30:48;;;;;;;49.40;23.65;;;8.60;99.90;;;;;;6340555;22;20268;-85
2022/10/20 05:33:13;;;;;;;42.78;23.17;;;8.60;99.90;;;;;;6340545;22;19995;-85
2022/10/20 05:35:39;;;;;;;40.72;23.13;;;8.60;99.90;;;;;;6313010;22;19999;-85
2022/10/20 05:38:05;;;;;;;47.63;24.25;;;8.60;99.90;;;;;;6313023;22;20067;-84
2022/10/20 05:40:31;;;;;;;40.75;20.98;;;8.50;99.90;;;;;;6313174;22;19991;-85
2022/10/20 05:42:56;;;;;;;35.85;18.50;;;8.60;99.90;;;;;;6312899;22;20010;-84
2022/10/20 05:45:22;;;;;;;41.97;19.38;;;8.60;99.90;;;;;;6312736;22;20345;-85
2022/10/20 05:47:48;;;;;;;34.05;18.75;;;8.60;99.90;;;;;;6312719;22;20363;-84
2022/10/20 05:50:14;;;;;;;30.02;18.38;;;8.60;99.90;;;;;;6340217;22;20048;-83
2022/10/20 05:52:40;;;;;;;41.17;17.55;;;8.70;99.90;;;;;;6340246;22;19987;-85
2022/10/20 05:55:06;;;;;;;41.53;19.60;;;8.70;99.90;;;;;;6312841;22;20128;-84
2022/10/20 05:57:32;;;;;;;51.90;20.65;;;8.80;99.90;;;;;;6340299;22;20002;-84
2022/10/20 05:59:57;;;;;;;42.28;18.52;;;8.70;99.90;;;;;;6312748;22;19990;-85
2022/10/20 06:02:23;;;;;;;41.08;17.80;;;8.70;99.90;;;;;;6339921;22;19999;-84
2022/10/20 06:04:49;;;;;;;31.55;17.20;;;8.80;99.90;;;;;;6312602;22;20002;-84
2022/10/20 06:07:15;;;;;;;33.50;17.17;;;8.90;99.90;;;;;;6312741;22;20017;-84
2022/10/20 06:09:40;;;;;;;31.20;15.82;;;8.90;99.90;;;;;;6312683;22;20035;-83
2022/10/20 06:12:06;;;;;;;32.38;15.77;;;9.00;99.90;;;;;;6340043;22;20285;-84
2022/10/20 06:14:32;;;;;;;34.33;16.33;;;9.00;99.90;;;;;;6340348;22;20014;-84
2022/10/20 06:16:58;;;;;;;29.98;16.42;;;9.10;99.90;;;;;;6340282;22;20396;-84
2022/10/20 06:19:27;;;;;;;32.15;16.70;;;9.20;99.90;;;;;;6312399;22;20033;-84
2022/10/20 06:21:53;;;;;;;23.13;13.00;;;9.20;99.90;;;;;;6312713;22;20078;-84
2022/10/20 06:24:19;;;;;;;33.10;14.40;;;9.30;99.90;;;;;;6312737;22;19998;-84
2022/10/20 06:26:45;;;;;;;28.48;13.90;;;9.40;99.90;;;;;;6312585;22;20132;-83
2022/10/20 06:29:13;;;;;;;22.38;11.63;;;9.50;99.90;;;;;;6312560;22;20006;-83
2022/10/20 06:31:48;;;;;;;23.27;12.15;;;9.60;99.90;;;;;;6312009;22;19991;-83
2022/10/20 06:34:19;;;;;;;25.50;13.60;;;9.70;99.90;;;;;;6312370;22;20063;-82
2022/10/20 06:36:46;;;;;;;20.45;11.95;;;9.80;99.90;;;;;;6340076;22;19998;-86
2022/10/20 06:39:18;;;;;;;21.48;11.18;;;9.80;99.90;;;;;;6312481;22;20075;-83
2022/10/20 06:41:49;;;;;;;;;;;9.90;99.90;;;;;;6340482;22;20003;-85
2022/10/20 06:44:16;;;;;;;20.90;11.13;;;9.90;99.90;;;;;;6340085;22;19939;-87
2022/10/20 06:46:41;;;;;;;21.50;11.60;;;10.00;99.90;;;;;;6339775;22;20479;-85
2022/10/20 06:49:10;;;;;;;28.95;12.35;;;10.00;99.90;;;;;;6312361;22;20060;-85
2022/10/20 06:51:36;;;;;;;21.55;12.77;;;10.10;99.90;;;;;;6312416;22;19995;-84
2022/10/20 06:54:03;;;;;;;22.10;12.05;;;10.20;99.90;;;;;;6339693;22;20022;-84
2022/10/20 06:56:31;;;;;;;25.48;13.13;;;10.30;99.90;;;;;;6312390;22;19998;-84
2022/10/20 06:58:58;;;;;;;26.83;13.35;;;10.30;99.90;;;;;;6312095;22;19999;-84
2022/10/20 07:01:25;;;;;;;22.05;11.50;;;10.30;99.90;;;;;;6311952;22;19994;-84
2022/10/20 07:03:54;;;;;;;21.50;11.90;;;10.50;99.90;;;;;;6339446;22;19987;-86
2022/10/20 07:06:22;;;;;;;21.20;12.18;;;10.50;99.90;;;;;;6339772;22;19995;-84
2022/10/20 07:08:49;;;;;;;24.33;12.68;;;10.60;99.90;;;;;;6312125;22;20010;-84
2022/10/20 07:11:18;;;;;;;38.92;19.35;;;10.60;99.90;;;;;;6339913;22;20065;-86
2022/10/20 07:13:45;;;;;;;23.67;11.27;;;10.60;99.90;;;;;;6339973;22;19998;-85
2022/10/20 07:16:13;;;;;;;24.08;10.90;;;10.70;99.90;;;;;;6311730;22;20408;-86
2022/10/20 07:18:39;;;;;;;22.50;14.32;;;10.80;99.90;;;;;;6312055;22;20033;-86
2022/10/20 07:21:08;;;;;;;38.13;17.73;;;10.90;99.90;;;;;;6312229;22;19986;-85
2022/10/20 07:23:35;;;;;;;30.83;15.02;;;11.00;99.90;;;;;;6312200;22;19995;-86
2022/10/20 07:26:16;;;;;;;17.35;10.60;;;11.10;99.90;;;;;;6312081;22;19991;-85
2022/10/20 07:28:44;;;;;;;24.73;11.80;;;11.10;99.90;;;;;;6339631;22;20007;-87
2022/10/20 07:31:13;;;;;;;25.75;10.95;;;11.20;99.90;;;;;;6312178;22;20365;-86
2022/10/20 07:33:39;;;;;;;30.98;18.15;;;11.20;99.90;;;;;;6312038;22;19991;-87
2022/10/20 07:36:20;;;;;;;26.30;15.95;;;11.30;99.90;;;;;;6311925;22;20078;-86
2022/10/20 07:38:47;;;;;;;19.83;11.40;;;11.50;99.90;;;;;;6339443;22;20315;-86
2022/10/20 07:41:13;;;;;;;22.33;10.02;;;11.60;99.90;;;;;;6311658;22;20002;-85
2022/10/20 07:43:40;;;;;;;20.58;10.13;;;11.60;99.90;;;;;;6339447;22;19993;-85
2022/10/20 07:46:06;;;;;;;24.45;12.80;;;11.70;99.90;;;;;;6339843;22;20026;-85
2022/10/20 07:48:32;;;;;;;26.85;15.35;;;11.80;99.90;;;;;;6311695;22;20109;-86
2022/10/20 07:51:17;;;;;;;32.58;16.70;;;11.90;99.90;;;;;;6311768;22;20352;-85
2022/10/20 07:53:43;;;;;;;29.95;14.50;;;11.90;99.90;;;;;;6311963;22;19994;-86
2022/10/20 07:56:10;;;;;;;31.08;13.52;;;12.00;99.90;;;;;;6311608;22;20048;-86
2022/10/20 07:58:36;;;;;;;23.88;10.95;;;12.00;99.90;;;;;;6311184;22;20312;-86
2022/10/20 08:01:02;;;;;;;22.25;11.30;;;12.10;99.90;;;;;;6311312;22;20006;-87
2022/10/20 08:03:28;;;;;;;28.98;11.98;;;12.20;99.90;;;;;;6311447;22;19995;-87
2022/10/20 08:05:54;;;;;;;24.52;13.90;;;12.20;99.90;;;;;;6311598;22;20120;-86
2022/10/20 08:08:20;;;;;;;46.17;22.95;;;12.30;99.90;;;;;;6339168;22;20288;-87
2022/10/20 08:10:58;;;;;;;28.77;12.75;;;12.40;99.90;;;;;;6311372;22;19998;-88
2022/10/20 08:13:44;;;;;;;18.52;9.73;;;12.50;99.90;;;;;;6306470;22;19999;-88
2022/10/20 08:16:23;;;;;;;19.77;10.05;;;12.60;99.90;;;;;;6310307;22;20072;-88
2022/10/20 08:18:59;;;;;;;13.57;8.52;;;12.60;99.90;;;;;;6310942;22;19998;-88
2022/10/20 08:21:48;;;;;;;21.73;9.75;;;12.70;99.90;;;;;;6311152;22;19991;-88
2022/10/20 08:24:14;;;;;;;16.60;8.65;;;12.80;99.90;;;;;;6310547;22;20085;-88
2022/10/20 08:26:43;;;;;;;17.95;7.25;;;12.80;99.90;;;;;;6311030;22;20023;-88
2022/10/20 08:29:11;;;;;;;17.08;7.00;;;12.90;99.90;;;;;;6311331;22;20037;-89
2022/10/20 08:31:38;;;;;;;16.83;7.85;;;12.80;99.90;;;;;;6311225;22;19991;-88
2022/10/20 08:34:09;;;;;;;16.27;7.18;;;12.90;99.90;;;;;;6311219;22;20001;-87
2022/10/20 08:36:36;;;;;;;13.05;6.68;;;13.10;99.90;;;;;;6311632;22;20017;-87
2022/10/20 08:39:02;;;;;;;16.83;7.45;;;13.10;99.90;;;;;;6311276;22;19999;-87
2022/10/20 08:41:37;;;;;;;11.13;6.72;;;13.20;99.90;;;;;;6311270;22;20015;-89
2022/10/20 08:44:06;;;;;;;14.48;7.20;;;13.20;99.90;;;;;;6311492;22;20082;-86
2022/10/20 08:46:35;;;;;;;14.57;7.90;;;13.40;99.90;;;;;;6310862;22;20000;-86
2022/10/20 08:49:04;;;;;;;12.55;7.20;;;13.50;99.90;;;;;;6311541;22;20003;-87
2022/10/20 08:51:37;;;;;;;15.50;7.60;;;13.60;99.90;;;;;;6311479;22;20002;-87
2022/10/20 08:54:05;;;;;;;16.80;8.95;;;13.60;99.90;;;;;;6311785;22;20002;-88
2022/10/20 08:56:33;;;;;;;15.68;7.13;;;13.80;99.90;;;;;;6313520;22;19997;-89
2022/10/20 08:59:02;;;;;;;14.20;7.53;;;13.90;99.90;;;;;;6313541;22;20343;-91
2022/10/20 09:01:33;;;;;;;21.83;7.35;;;14.00;99.90;;;;;;6313274;22;20052;-88
2022/10/20 09:04:08;;;;;;;16.63;8.02;;;14.00;99.90;;;;;;6313352;22;20002;-89
2022/10/20 09:06:35;;;;;;;14.50;8.18;;;14.20;99.90;;;;;;6313316;22;20002;-89
2022/10/20 09:09:01;;;;;;;17.38;7.45;;;14.40;99.90;;;;;;6312706;22;20003;-87
2022/10/20 09:11:33;;;;;;;90.93;36.20;;;14.60;99.60;;;;;;6313002;22;20002;-88
2022/10/20 09:13:59;;;;;;;39.90;18.20;;;14.60;97.10;;;;;;6313023;22;19999;-88
2022/10/20 09:16:37;;;;;;;22.50;11.05;;;14.70;97.30;;;;;;6313230;22;20392;-89
2022/10/20 09:19:05;;;;;;;11.52;6.00;;;15.00;99.00;;;;;;6312436;22;20003;-89
2022/10/20 09:21:56;;;;;;;19.20;8.75;;;15.20;93.10;;;;;;6312500;22;19994;-88
2022/10/20 09:32:25;;;;;;;14.40;7.03;;;15.60;92.80;;;;;;6066792;23;20010;-88
2022/10/20 09:35:24;;;;;;;21.83;10.70;;;15.90;90.60;;;;;;6046812;23;20003;-86
2022/10/20 09:38:16;;;;;;;17.75;7.38;;;16.10;90.90;;;;;;6066946;23;20005;-85
2022/10/20 09:40:55;;;;;;;11.30;6.55;;;16.10;87.60;;;;;;6036625;23;20436;-87
2022/10/20 09:43:30;;;;;;;200.57;93.25;;;16.10;85.70;;;;;;6067006;23;20007;-87
2022/10/20 09:46:00;;;;;;;22.80;11.50;;;16.10;83.70;;;;;;6067203;23;19998;-84
2022/10/20 09:48:38;;;;;;;10.65;5.65;;;16.40;85.90;;;;;;6066733;23;20340;-85
2022/10/20 09:51:11;;;;;;;14.25;6.50;;;16.50;83.20;;;;;;6043045;23;20437;-86
2022/10/20 09:53:54;;;;;;;14.35;6.22;;;16.70;80.40;;;;;;6066787;23;20028;-83
2022/10/20 09:56:41;;;;;;;12.80;6.00;;;16.80;77.30;;;;;;6066823;23;20026;-85
2022/10/20 09:59:17;;;;;;;13.35;6.20;;;17.10;77.80;;;;;;5994908;23;20014;-84
2022/10/20 10:01:59;;;;;;;25.58;7.63;;;17.20;75.60;;;;;;6032185;23;20416;-86
2022/10/20 10:05:13;;;;;;;19.23;6.07;;;17.50;74.70;;;;;;6158019;23;20012;-86
2022/10/20 10:07:39;;;;;;;17.70;6.35;;;17.70;74.70;;;;;;6120238;23;20080;-83
2022/10/20 10:10:24;;;;;;;14.50;6.25;;;17.80;74.70;;;;;;6213750;23;20445;-87
2022/10/20 10:12:55;;;;;;;14.38;6.18;;;17.90;74.00;;;;;;6213974;23;20500;-82
2022/10/20 10:15:23;;;;;;;26.65;5.43;;;18.00;71.50;;;;;;6214536;23;20314;-84
2022/10/20 10:17:50;;;;;;;35.95;6.25;;;18.10;70.70;;;;;;6214270;23;20043;-86
2022/10/20 10:20:15;;;;;;;29.20;5.55;;;18.20;70.50;;;;;;6214268;23;19992;-82
2022/10/20 10:22:42;;;;;;;14.30;4.85;;;18.30;68.80;;;;;;6214016;23;20011;-83
2022/10/20 10:25:26;;;;;;;13.98;5.40;;;18.20;68.40;;;;;;6214210;23;20075;-82
2022/10/20 10:28:02;;;;;;;10.98;4.53;;;18.40;67.50;;;;;;6214125;23;20004;-83
2022/10/20 10:30:33;;;;;;;18.08;5.40;;;18.50;67.80;;;;;;6213865;23;19992;-83
2022/10/20 10:32:59;;;;;;;13.88;6.03;;;18.70;69.40;;;;;;6214262;23;20000;-86
2022/10/20 10:35:40;;;;;;;12.57;5.32;;;18.80;66.40;;;;;;6213511;23;20426;-86
2022/10/20 10:38:09;;;;;;;17.13;4.65;;;19.00;64.70;;;;;;6214126;23;20005;-84
2022/10/20 10:40:47;;;;;;;36.22;6.60;;;19.20;66.20;;;;;;6214080;23;20052;-85
2022/10/20 10:43:44;;;;;;;14.15;5.05;;;19.10;64.70;;;;;;6203925;22;20336;-85
2022/10/20 10:46:25;;;;;;;13.10;5.28;;;19.00;63.80;;;;;;6295885;22;19999;-87
2022/10/20 10:49:00;;;;;;;15.18;4.80;;;19.00;64.00;;;;;;6309551;22;20015;-84
2022/10/20 10:51:47;;;;;;;19.33;5.28;;;19.00;60.40;;;;;;6312054;22;19994;-82
2022/10/20 10:54:26;;;;;;;10.82;5.60;;;19.10;62.90;;;;;;6340662;22;20021;-85
2022/10/20 10:57:02;;;;;;;16.10;5.72;;;19.30;61.50;;;;;;6312216;22;20002;-82
2022/10/20 10:59:35;;;;;;;11.43;5.43;;;19.30;61.20;;;;;;6312271;22;20090;-83
2022/10/20 11:02:03;;;;;;;17.45;5.97;;;19.40;60.70;;;;;;6340259;22;19991;-83
2022/10/20 11:04:41;;;;;;;22.00;5.20;;;19.60;62.40;;;;;;6339778;22;20014;-84
2022/10/20 11:07:16;;;;;;;43.33;7.30;;;19.40;60.70;;;;;;6339765;22;19990;-84
2022/10/20 11:09:58;;;;;;;11.95;4.95;;;19.60;61.60;;;;;;6339503;22;20003;-84
2022/10/20 11:13:05;;;;;;;14.45;5.88;;;19.60;59.60;;;;;;6338418;22;19987;-82
2022/10/20 11:16:08;;;;;;;11.32;5.47;;;19.80;60.30;;;;;;6311585;22;20495;-85
2022/10/20 11:19:19;;;;;;;13.57;5.15;;;19.90;58.60;;;;;;6337938;22;20005;-85
2022/10/20 11:22:06;;;;;;;12.93;4.90;;;19.80;58.70;;;;;;6250450;22;19999;-85
2022/10/20 11:24:47;;;;;;;7.30;5.10;;;19.70;58.10;;;;;;6339210;22;20022;-84
2022/10/20 11:27:21;;;;;;;13.77;5.05;;;19.80;58.30;;;;;;6339972;22;20014;-84
2022/10/20 11:30:14;;;;;;;11.85;4.72;;;20.00;59.40;;;;;;6312290;22;20006;-83
2022/10/20 11:33:11;;;;;;;7.03;3.80;;;20.20;55.60;;;;;;6339884;22;20070;-83
2022/10/20 11:35:56;;;;;;;10.82;4.07;;;20.20;53.30;;;;;;6339724;22;19999;-83
2022/10/20 11:38:39;;;;;;;5.63;3.90;;;20.10;54.80;;;;;;6311978;22;20089;-82
2022/10/20 11:41:17;;;;;;;9.98;3.75;;;20.10;53.20;;;;;;6311560;22;20002;-84
2022/10/20 11:43:49;;;;;;;13.02;3.78;;;20.00;53.50;;;;;;6312138;22;20356;-84
2022/10/20 11:46:18;;;;;;;;;;;20.00;54.70;;;;;;6339910;22;20411;-84
2022/10/20 11:48:53;;;;;;;11.50;3.90;;;20.20;54.50;;;;;;6311665;22;19910;-84
2022/10/20 11:51:52;;;;;;;11.32;4.38;;;20.20;53.80;;;;;;6312122;22;20077;-84
2022/10/20 11:54:32;;;;;;;11.15;4.53;;;20.10;53.60;;;;;;6339529;22;20350;-83
2022/10/20 11:57:30;;;;;;;10.95;4.43;;;20.30;53.80;;;;;;6339806;22;20065;-83
2022/10/20 12:00:30;;;;;;;11.40;5.15;;;20.10;53.20;;;;;;6183477;23;20342;-82
2022/10/20 12:03:09;;;;;;;13.15;5.68;;;20.20;53.80;;;;;;6100968;23;20001;-84
2022/10/20 12:05:48;;;;;;;10.93;4.80;;;20.30;53.70;;;;;;6158621;23;20127;-84
2022/10/20 12:09:01;;;;;;;10.50;5.03;;;20.30;53.20;;;;;;6183741;23;20426;-83
2022/10/20 12:11:59;;;;;;;10.13;6.47;;;20.30;54.60;;;;;;6124448;23;20080;-85
2022/10/20 12:14:36;;;;;;;10.13;5.72;;;20.10;52.60;;;;;;6113928;23;20057;-83
2022/10/20 12:17:25;;;;;;;8.45;3.90;;;20.00;51.50;;;;;;6087715;23;19998;-82
2022/10/20 12:19:51;;;;;;;6.97;4.20;;;20.00;52.90;;;;;;6099648;23;20008;-84
2022/10/20 12:22:38;;;;;;;17.08;4.40;;;19.90;50.20;;;;;;6124298;23;20091;-83
2022/10/20 12:25:04;;;;;;;11.90;5.28;;;19.80;51.20;;;;;;6083577;23;20038;-83
2022/10/20 12:27:31;;;;;;;7.82;4.10;;;19.80;52.20;;;;;;6117424;23;20006;-82
2022/10/20 12:30:19;;;;;;;7.40;4.60;;;19.70;52.30;;;;;;6125899;23;20060;-84
2022/10/20 12:32:57;;;;;;;7.90;5.22;;;19.80;52.60;;;;;;6101684;23;20001;-83
2022/10/20 12:35:22;;;;;;;6.30;4.03;;;19.90;52.00;;;;;;6161836;23;20015;-84
2022/10/20 12:37:57;;;;;;;11.43;4.20;;;19.90;51.00;;;;;;6240333;23;20418;-82
2022/10/20 12:40:41;;;;;;;8.27;4.25;;;19.80;50.40;;;;;;6215457;23;20541;-84
2022/10/20 12:43:30;;;;;;;9.55;3.83;;;19.40;51.60;;;;;;6334593;22;20007;-83
2022/10/20 12:46:02;;;;;;;7.15;4.65;;;19.30;51.90;;;;;;6341105;22;19997;-87
2022/10/20 12:48:29;;;;;;;8.93;5.10;;;19.20;52.20;;;;;;6313757;22;20404;-83
2022/10/20 12:51:03;;;;;;;7.45;4.47;;;19.20;52.50;;;;;;6313639;22;20349;-85
2022/10/20 12:53:30;;;;;;;6.78;4.20;;;19.20;52.10;;;;;;6341619;22;20015;-83
2022/10/20 12:56:10;;;;;;;7.30;3.35;;;19.30;53.10;;;;;;6313547;22;20074;-83
2022/10/20 12:58:38;;;;;;;5.45;3.47;;;19.10;50.00;;;;;;6313497;22;20086;-85
2022/10/20 13:01:09;;;;;;;10.45;3.97;;;19.10;51.00;;;;;;6341326;22;19991;-84
2022/10/20 13:03:46;;;;;;;6.63;4.13;;;19.10;50.20;;;;;;6313478;22;20002;-82
2022/10/20 13:06:21;;;;;;;7.93;3.00;;;18.90;48.90;;;;;;6313348;22;20002;-84
2022/10/20 13:09:02;;;;;;;8.15;3.63;;;18.90;50.10;;;;;;6340965;22;20010;-84